Time;durP1;ratioP1;P1;durP2;ratioP2;P2;SDS_P1;SDS_P2;PMS_P1;PMS_P2;Temp;Humidity;BMP_temperature;BMP_pressure;BME280_temperature;BME280_humidity;BME280_pressure;Samples;Min_cycle;Max_cycle;Signal;HPM_P1;HPM_P2
2023/06/21 00:01:38;;;;;;;17.83;16.03;;;25.50;99.90;;;;;;5087235;28;20412;-79
2023/06/21 00:04:05;;;;;;;16.97;15.37;;;25.50;99.90;;;;;;5069044;28;20691;-79
2023/06/21 00:06:30;;;;;;;22.60;16.20;;;25.40;99.90;;;;;;5068900;28;20476;-79
2023/06/21 00:08:57;;;;;;;17.30;15.67;;;25.30;99.90;;;;;;5086759;28;20441;-79
2023/06/21 00:11:23;;;;;;;20.43;16.20;;;25.30;99.90;;;;;;5086995;28;20326;-79
2023/06/21 00:13:52;;;;;;;18.27;16.20;;;25.20;99.90;;;;;;5067941;28;20964;-79
2023/06/21 00:16:18;;;;;;;19.50;16.20;;;25.20;99.90;;;;;;5086140;28;20921;-79
2023/06/21 00:18:43;;;;;;;19.13;17.07;;;25.10;99.90;;;;;;5086778;28;20462;-79
2023/06/21 00:21:09;;;;;;;17.53;15.67;;;25.10;99.90;;;;;;5068381;28;20192;-79
2023/06/21 00:23:34;;;;;;;19.80;17.73;;;25.10;99.90;;;;;;5086860;28;20172;-79
2023/06/21 00:26:00;;;;;;;20.23;18.33;;;25.00;99.90;;;;;;5068807;28;20181;-79
2023/06/21 00:28:26;;;;;;;18.57;16.67;;;25.00;99.90;;;;;;5068302;28;20583;-79
2023/06/21 00:30:51;;;;;;;24.87;17.30;;;24.90;99.90;;;;;;5086848;28;20172;-78
2023/06/21 00:33:17;;;;;;;19.57;17.10;;;24.90;99.90;;;;;;5068454;28;20191;-79
2023/06/21 00:35:43;;;;;;;19.23;17.13;;;24.80;99.90;;;;;;5068779;28;20543;-79
2023/06/21 00:38:12;;;;;;;19.07;17.20;;;24.80;99.90;;;;;;5086223;28;20206;-79
2023/06/21 00:40:38;;;;;;;20.30;18.20;;;24.80;99.90;;;;;;5068841;28;20696;-79
2023/06/21 00:43:05;;;;;;;21.03;18.07;;;24.80;99.90;;;;;;5068986;28;20501;-79
2023/06/21 00:45:39;;;;;;;19.70;17.80;;;24.80;99.90;;;;;;5090932;28;20836;-79
2023/06/21 00:48:08;;;;;;;20.57;18.47;;;24.80;99.90;;;;;;5089602;28;20532;-79
2023/06/21 00:50:38;;;;;;;20.00;17.90;;;24.80;99.90;;;;;;5090883;28;20470;-79
2023/06/21 00:53:04;;;;;;;19.07;17.10;;;24.80;99.90;;;;;;5090031;28;20496;-79
2023/06/21 00:55:30;;;;;;;20.03;17.90;;;24.80;99.90;;;;;;5089760;28;20508;-79
2023/06/21 00:57:57;;;;;;;18.47;16.63;;;24.70;99.90;;;;;;5072080;28;20337;-79
2023/06/21 01:00:24;;;;;;;19.70;17.43;;;24.70;99.90;;;;;;5072199;28;21130;-79
2023/06/21 01:02:52;;;;;;;20.30;18.30;;;24.70;99.90;;;;;;5089474;28;20408;-78
2023/06/21 01:05:19;;;;;;;19.27;17.37;;;24.70;99.90;;;;;;5089874;28;20924;-79
2023/06/21 01:08:02;;;;;;;22.20;17.17;;;24.70;99.90;;;;;;5089971;28;20477;-79
2023/06/21 01:10:36;;;;;;;19.97;17.83;;;24.70;99.90;;;;;;5090379;28;20429;-79
2023/06/21 01:13:23;;;;;;;21.37;18.20;;;24.60;99.90;;;;;;5090152;28;20463;-79
2023/06/21 01:15:59;;;;;;;19.40;17.60;;;24.60;99.90;;;;;;5090153;28;20445;-79
2023/06/21 01:18:26;;;;;;;21.87;18.07;;;24.50;99.90;;;;;;5088670;28;20554;-79
2023/06/21 01:20:54;;;;;;;20.53;18.43;;;24.50;99.90;;;;;;5090006;28;20427;-79
2023/06/21 01:23:26;;;;;;;20.63;18.60;;;24.40;99.90;;;;;;5089502;28;20778;-79
2023/06/21 01:26:12;;;;;;;19.80;17.80;;;24.40;99.90;;;;;;5071833;28;20432;-79
2023/06/21 01:29:06;;;;;;;21.30;19.20;;;24.30;99.90;;;;;;5071419;28;20421;-79
2023/06/21 01:31:32;;;;;;;22.03;19.50;;;24.30;99.90;;;;;;5089568;28;20420;-79
2023/06/21 01:33:59;;;;;;;25.50;18.57;;;24.30;99.90;;;;;;5089514;28;20435;-79
2023/06/21 01:36:25;;;;;;;21.27;19.10;;;24.20;99.90;;;;;;5089391;28;20400;-79
2023/06/21 01:38:59;;;;;;;24.10;20.07;;;24.20;99.90;;;;;;5089481;28;20462;-79
2023/06/21 01:41:25;;;;;;;24.37;19.27;;;24.20;99.90;;;;;;5089412;28;20402;-79
2023/06/21 01:43:55;;;;;;;21.93;19.63;;;24.20;99.90;;;;;;5089353;28;20513;-79
2023/06/21 01:46:23;;;;;;;21.13;19.03;;;24.10;99.90;;;;;;5089160;28;20416;-79
2023/06/21 01:48:50;;;;;;;20.60;18.50;;;24.10;99.90;;;;;;5089207;28;20428;-79
2023/06/21 01:51:17;;;;;;;22.73;19.80;;;24.10;99.90;;;;;;5070647;28;20432;-79
2023/06/21 01:53:43;;;;;;;21.83;19.53;;;24.10;99.90;;;;;;5089292;28;20487;-79
2023/06/21 01:56:15;;;;;;;21.43;19.23;;;24.10;99.90;;;;;;5069798;28;20443;-79
2023/06/21 01:58:41;;;;;;;19.63;17.63;;;24.10;99.90;;;;;;5089050;28;20463;-79
2023/06/21 02:01:09;;;;;;;20.43;18.33;;;24.10;99.90;;;;;;5088821;28;20408;-79
2023/06/21 02:03:39;;;;;;;21.37;19.17;;;24.10;99.90;;;;;;5088641;28;20246;-79
2023/06/21 02:06:06;;;;;;;22.30;19.03;;;24.10;99.90;;;;;;5088547;28;20423;-79
2023/06/21 02:08:32;;;;;;;21.10;19.03;;;24.10;99.90;;;;;;5088581;28;20401;-79
2023/06/21 02:11:00;;;;;;;24.53;21.13;;;24.10;99.90;;;;;;5088808;28;20417;-79
2023/06/21 02:13:27;;;;;;;21.80;19.50;;;24.10;99.90;;;;;;5088555;28;20406;-79
2023/06/21 02:15:53;;;;;;;23.87;19.80;;;24.10;99.90;;;;;;5088855;28;20412;-79
2023/06/21 02:18:23;;;;;;;25.27;19.73;;;24.10;99.90;;;;;;5087246;28;20466;-79
2023/06/21 02:20:49;;;;;;;21.30;19.10;;;24.10;99.90;;;;;;5070151;28;20472;-79
2023/06/21 02:23:15;;;;;;;22.20;19.83;;;24.10;99.90;;;;;;5070070;28;20438;-79
2023/06/21 02:25:41;;;;;;;19.83;17.93;;;24.10;99.90;;;;;;5088975;28;20441;-79
2023/06/21 02:28:06;;;;;;;21.20;19.23;;;24.10;99.90;;;;;;5069595;28;20582;-79
2023/06/21 02:30:32;;;;;;;21.20;19.10;;;24.10;99.90;;;;;;5088880;28;20198;-78
2023/06/21 02:32:58;;;;;;;22.40;20.00;;;24.20;99.90;;;;;;5088056;28;20203;-79
2023/06/21 02:35:24;;;;;;;20.30;18.30;;;24.10;99.90;;;;;;5088482;28;20785;-79
2023/06/21 02:37:50;;;;;;;21.53;19.40;;;24.20;99.90;;;;;;5087842;28;20460;-79
2023/06/21 02:40:16;;;;;;;21.93;19.77;;;24.10;99.90;;;;;;5069578;28;21053;-79
2023/06/21 02:42:41;;;;;;;21.70;19.53;;;24.10;99.90;;;;;;5087272;28;20261;-79
2023/06/21 02:45:09;;;;;;;21.93;19.70;;;24.20;99.90;;;;;;5088199;28;20247;-79
2023/06/21 02:47:35;;;;;;;21.47;19.37;;;24.20;99.90;;;;;;5088105;28;20203;-79
2023/06/21 02:50:02;;;;;;;26.03;20.83;;;24.10;99.90;;;;;;5087570;28;20952;-79
2023/06/21 02:52:27;;;;;;;21.87;19.77;;;24.10;99.90;;;;;;5087966;28;20579;-79
2023/06/21 02:54:53;;;;;;;21.97;19.67;;;24.10;99.90;;;;;;5088028;28;20439;-79
2023/06/21 02:57:19;;;;;;;21.00;18.93;;;24.10;99.90;;;;;;5068797;28;20281;-79
2023/06/21 02:59:47;;;;;;;22.13;19.90;;;24.10;99.90;;;;;;5088360;28;20286;-79
2023/06/21 03:02:13;;;;;;;23.00;20.70;;;24.10;99.90;;;;;;5087730;28;20777;-79
2023/06/21 03:04:39;;;;;;;28.60;20.40;;;24.10;99.90;;;;;;5087982;28;20429;-79
2023/06/21 03:07:05;;;;;;;28.07;21.40;;;24.00;99.90;;;;;;5086318;28;20187;-79
2023/06/21 03:09:32;;;;;;;22.00;19.60;;;24.10;99.90;;;;;;5087829;28;20496;-79
2023/06/21 03:11:57;;;;;;;21.47;19.37;;;24.00;99.90;;;;;;5069142;28;20455;-79
2023/06/21 03:14:23;;;;;;;21.90;19.70;;;24.00;99.90;;;;;;5069431;28;20659;-79
2023/06/21 03:16:49;;;;;;;22.40;20.07;;;24.00;99.90;;;;;;5069032;28;20210;-79
2023/06/21 03:19:17;;;;;;;23.40;21.00;;;23.90;99.90;;;;;;5087022;28;20264;-79
2023/06/21 03:21:43;;;;;;;24.80;21.33;;;23.90;99.90;;;;;;5086873;28;20411;-79
2023/06/21 03:24:09;;;;;;;22.60;20.20;;;23.90;99.90;;;;;;5087386;28;20542;-79
2023/06/21 03:26:35;;;;;;;21.50;19.20;;;23.90;99.90;;;;;;5069363;28;20516;-78
2023/06/21 03:29:02;;;;;;;23.33;20.20;;;23.90;99.90;;;;;;5086025;28;20190;-79
2023/06/21 03:31:28;;;;;;;21.67;19.50;;;23.90;99.90;;;;;;5068764;28;20428;-79
2023/06/21 03:33:54;;;;;;;22.53;20.20;;;23.90;99.90;;;;;;5086785;28;20444;-79
2023/06/21 03:36:20;;;;;;;23.30;20.40;;;23.90;99.90;;;;;;5086778;28;20421;-79
2023/06/21 03:38:46;;;;;;;22.07;19.40;;;23.90;99.90;;;;;;5086984;28;21013;-79
2023/06/21 03:41:12;;;;;;;22.47;20.00;;;23.90;99.90;;;;;;5068964;28;20435;-79
2023/06/21 03:43:37;;;;;;;20.80;18.70;;;23.90;99.90;;;;;;5086801;28;20232;-79
2023/06/21 03:46:03;;;;;;;21.03;18.90;;;23.90;99.90;;;;;;5068829;28;20191;-79
2023/06/21 03:48:29;;;;;;;21.50;19.20;;;23.90;99.90;;;;;;5086757;28;20226;-79
2023/06/21 03:50:54;;;;;;;21.87;19.53;;;23.90;99.90;;;;;;5087690;28;20181;-79
2023/06/21 03:53:20;;;;;;;21.83;19.60;;;23.90;99.90;;;;;;5068617;28;20189;-79
2023/06/21 03:55:45;;;;;;;22.30;19.97;;;23.90;99.90;;;;;;5087556;28;20198;-79
2023/06/21 03:58:12;;;;;;;21.13;18.87;;;23.90;99.90;;;;;;5067995;28;20225;-79
2023/06/21 04:00:38;;;;;;;20.90;18.80;;;24.00;99.90;;;;;;5087218;28;20413;-79
2023/06/21 04:03:04;;;;;;;19.80;17.70;;;24.00;99.90;;;;;;5085877;28;20455;-79
2023/06/21 04:05:30;;;;;;;20.90;18.70;;;24.00;99.90;;;;;;5068620;28;20222;-79
2023/06/21 04:07:56;;;;;;;20.60;17.40;;;24.00;99.90;;;;;;5086977;28;20420;-79
2023/06/21 04:10:21;;;;;;;20.23;18.23;;;24.00;99.90;;;;;;5068941;28;20203;-79
2023/06/21 04:12:47;;;;;;;24.10;18.00;;;24.00;99.90;;;;;;5086776;28;20183;-78
2023/06/21 04:15:13;;;;;;;21.67;18.07;;;24.00;99.90;;;;;;5068662;28;20199;-79
2023/06/21 04:17:38;;;;;;;21.97;19.63;;;24.00;99.90;;;;;;5087355;28;20217;-79
2023/06/21 04:20:13;;;;;;;21.23;19.10;;;24.00;99.90;;;;;;5091000;28;20199;-79
2023/06/21 04:22:40;;;;;;;18.70;16.90;;;24.00;99.90;;;;;;5072894;28;20526;-79
2023/06/21 04:25:07;;;;;;;20.67;18.47;;;24.00;99.90;;;;;;5073132;28;20487;-79
2023/06/21 04:27:33;;;;;;;22.30;19.00;;;24.00;99.90;;;;;;5087648;28;20412;-79
2023/06/21 04:29:59;;;;;;;22.37;18.30;;;24.00;99.90;;;;;;5069037;28;20820;-79
2023/06/21 04:32:32;;;;;;;21.10;18.90;;;24.00;99.90;;;;;;5070379;28;20443;-79
2023/06/21 04:34:59;;;;;;;21.30;18.93;;;24.00;99.90;;;;;;5084426;28;21227;-79
2023/06/21 04:37:25;;;;;;;23.40;18.33;;;24.10;99.90;;;;;;5080275;28;20997;-79
2023/06/21 04:39:51;;;;;;;20.47;18.10;;;24.10;99.90;;;;;;5089211;28;20442;-79
2023/06/21 04:42:20;;;;;;;26.23;17.83;;;24.10;99.90;;;;;;5090200;28;20438;-79
2023/06/21 04:44:50;;;;;;;19.67;17.50;;;24.10;99.90;;;;;;5090574;28;20490;-79
2023/06/21 04:47:16;;;;;;;20.60;17.63;;;24.10;99.90;;;;;;5089746;28;20432;-79
2023/06/21 04:49:43;;;;;;;19.93;16.83;;;24.10;99.90;;;;;;5090747;28;20801;-79
2023/06/21 04:52:09;;;;;;;22.90;17.77;;;24.20;99.90;;;;;;5068396;28;20428;-79
2023/06/21 04:54:36;;;;;;;20.20;17.90;;;24.30;99.90;;;;;;5052092;28;20452;-79
2023/06/21 04:57:04;;;;;;;18.40;16.40;;;24.40;99.90;;;;;;5078305;28;20638;-79
2023/06/21 04:59:30;;;;;;;18.73;16.30;;;24.40;99.90;;;;;;5070986;28;20509;-79
2023/06/21 05:01:56;;;;;;;21.90;16.23;;;24.50;99.90;;;;;;5079721;28;20435;-79
2023/06/21 05:04:22;;;;;;;16.10;14.40;;;24.60;99.90;;;;;;5077190;28;21035;-79
2023/06/21 05:06:48;;;;;;;17.77;15.97;;;24.60;99.90;;;;;;5090002;28;20511;-79
2023/06/21 05:09:13;;;;;;;18.40;16.07;;;24.70;99.90;;;;;;5088412;28;20539;-80
2023/06/21 05:11:39;;;;;;;18.17;15.93;;;24.70;99.90;;;;;;5087353;28;20199;-79
2023/06/21 05:14:05;;;;;;;23.17;15.80;;;24.80;99.90;;;;;;5088501;28;20408;-79
2023/06/21 05:16:31;;;;;;;18.00;16.20;;;24.90;99.90;;;;;;5070219;28;20420;-79
2023/06/21 05:18:57;;;;;;;17.20;15.40;;;24.90;99.90;;;;;;5068685;28;20224;-79
2023/06/21 05:21:22;;;;;;;16.73;14.93;;;25.00;99.90;;;;;;5087172;28;20417;-79
2023/06/21 05:23:48;;;;;;;19.00;13.60;;;25.00;99.90;;;;;;5063288;28;20357;-79
2023/06/21 05:26:13;;;;;;;16.10;14.43;;;25.10;99.90;;;;;;5067867;28;20180;-78
2023/06/21 05:28:39;;;;;;;15.77;14.27;;;25.20;99.90;;;;;;5076699;28;20169;-79
2023/06/21 05:31:05;;;;;;;15.67;14.07;;;25.30;99.90;;;;;;5066277;28;20215;-79
2023/06/21 05:33:30;;;;;;;16.53;14.93;;;25.40;99.90;;;;;;5083267;28;20173;-79
2023/06/21 05:35:56;;;;;;;15.73;13.60;;;25.50;99.90;;;;;;5080737;28;20695;-79
2023/06/21 05:38:22;;;;;;;14.60;13.07;;;25.60;99.90;;;;;;5079866;28;20208;-79
2023/06/21 05:40:47;;;;;;;14.70;13.30;;;25.60;99.90;;;;;;5082598;28;20602;-79
2023/06/21 05:43:13;;;;;;;14.57;13.20;;;25.70;99.90;;;;;;5084854;28;20236;-79
2023/06/21 05:45:39;;;;;;;15.50;13.90;;;25.80;99.90;;;;;;5084046;28;20325;-79
2023/06/21 05:48:04;;;;;;;14.30;12.80;;;25.90;99.90;;;;;;5085220;28;20188;-79
2023/06/21 05:50:30;;;;;;;14.10;12.83;;;26.00;99.90;;;;;;5071345;28;21215;-79
2023/06/21 05:52:59;;;;;;;12.67;11.40;;;26.00;99.90;;;;;;5067487;28;20237;-79
2023/06/21 05:55:25;;;;;;;14.27;12.87;;;26.10;99.90;;;;;;5085014;28;20604;-79
2023/06/21 05:57:51;;;;;;;15.00;13.50;;;26.20;99.90;;;;;;5071546;28;21084;-79
2023/06/21 06:00:18;;;;;;;15.27;13.67;;;26.30;99.90;;;;;;5083441;28;20788;-79
2023/06/21 06:02:45;;;;;;;17.50;14.43;;;26.40;99.90;;;;;;5066673;28;20345;-79
2023/06/21 06:05:11;;;;;;;15.43;14.00;;;26.50;99.90;;;;;;5067212;28;20781;-79
2023/06/21 06:07:37;;;;;;;17.17;15.63;;;26.60;99.90;;;;;;5085868;28;20409;-79
2023/06/21 06:10:04;;;;;;;15.40;14.10;;;26.60;99.90;;;;;;5087975;28;20441;-79
2023/06/21 06:12:30;;;;;;;15.77;14.17;;;26.70;99.90;;;;;;5067034;28;20413;-79
2023/06/21 06:14:56;;;;;;;15.80;14.30;;;26.70;99.90;;;;;;5081986;28;20457;-79
2023/06/21 06:17:21;;;;;;;16.60;15.00;;;26.80;99.90;;;;;;5063466;28;20520;-79
2023/06/21 06:19:47;;;;;;;16.00;14.50;;;26.90;99.90;;;;;;5081034;28;20628;-79
2023/06/21 06:22:13;;;;;;;15.53;14.03;;;27.00;99.90;;;;;;5064312;28;20186;-79
2023/06/21 06:24:38;;;;;;;15.23;13.80;;;27.00;99.90;;;;;;5082278;28;20429;-79
2023/06/21 06:27:05;;;;;;;15.50;13.77;;;27.10;99.90;;;;;;5064329;28;20786;-79
2023/06/21 06:29:30;;;;;;;16.63;14.90;;;27.20;99.90;;;;;;5081421;28;20252;-80
2023/06/21 06:31:56;;;;;;;16.80;15.27;;;27.30;99.90;;;;;;5062081;28;20722;-79
2023/06/21 06:34:22;;;;;;;15.10;13.70;;;27.40;99.90;;;;;;5083107;28;20232;-79
2023/06/21 06:36:48;;;;;;;16.40;15.00;;;27.50;99.90;;;;;;5064368;28;20181;-80
2023/06/21 06:39:14;;;;;;;17.13;15.43;;;27.60;99.90;;;;;;5077992;28;20220;-79
2023/06/21 06:41:39;;;;;;;15.23;13.83;;;27.70;99.90;;;;;;5080877;28;20790;-79
2023/06/21 06:44:05;;;;;;;17.10;15.30;;;27.80;99.90;;;;;;5081883;28;20586;-79
2023/06/21 06:46:31;;;;;;;16.80;15.20;;;27.90;99.90;;;;;;5075170;28;20266;-78
2023/06/21 06:48:57;;;;;;;17.73;14.90;;;27.90;99.90;;;;;;5052928;28;20203;-79
2023/06/21 06:51:24;;;;;;;16.00;14.40;;;28.00;99.90;;;;;;5078186;28;20439;-79
2023/06/21 06:53:49;;;;;;;16.77;15.27;;;28.10;99.90;;;;;;5061799;28;20463;-79
2023/06/21 06:56:15;;;;;;;14.60;13.30;;;28.20;99.90;;;;;;5062892;28;20439;-79
2023/06/21 06:58:41;;;;;;;15.40;13.80;;;28.30;99.90;;;;;;5064161;28;20209;-79
2023/06/21 07:01:07;;;;;;;16.60;15.00;;;28.40;99.90;;;;;;5063424;28;20282;-79
2023/06/21 07:03:33;;;;;;;15.47;14.07;;;28.50;99.90;;;;;;5081277;28;20179;-79
2023/06/21 07:05:59;;;;;;;15.80;14.30;;;28.60;99.90;;;;;;5081667;28;20195;-80
2023/06/21 07:08:25;;;;;;;14.57;13.37;;;28.60;99.90;;;;;;5081035;28;20418;-79
2023/06/21 07:10:51;;;;;;;16.17;14.57;;;28.70;99.90;;;;;;5063454;28;20450;-79
2023/06/21 07:13:17;;;;;;;17.60;15.90;;;28.70;99.90;;;;;;5062668;28;20864;-79
2023/06/21 07:15:43;;;;;;;17.07;15.50;;;28.80;99.90;;;;;;5063104;28;20442;-79
2023/06/21 07:18:10;;;;;;;16.10;14.70;;;28.90;99.90;;;;;;5081281;28;20512;-79
2023/06/21 07:20:35;;;;;;;16.10;14.60;;;29.00;99.90;;;;;;5061219;28;20457;-79
2023/06/21 07:23:01;;;;;;;15.80;13.90;;;29.10;99.90;;;;;;5061852;28;20404;-79
2023/06/21 07:25:27;;;;;;;16.60;15.00;;;29.20;99.90;;;;;;5075205;28;20572;-79
2023/06/21 07:27:52;;;;;;;17.07;15.37;;;29.20;99.90;;;;;;5062241;28;20198;-79
2023/06/21 07:30:20;;;;;;;16.40;14.70;;;29.30;99.90;;;;;;5074772;28;20208;-79
2023/06/21 07:32:47;;;;;;;19.00;15.70;;;29.40;99.90;;;;;;5083422;28;20186;-79
2023/06/21 07:35:14;;;;;;;17.03;15.33;;;29.50;99.90;;;;;;5086104;28;20442;-79
2023/06/21 07:37:41;;;;;;;23.60;14.97;;;29.50;99.90;;;;;;5084589;28;20491;-79
2023/06/21 07:40:09;;;;;;;16.93;15.43;;;29.60;99.90;;;;;;5064556;28;20745;-79
2023/06/21 07:42:35;;;;;;;16.53;14.90;;;29.60;99.90;;;;;;5063120;28;20423;-79
2023/06/21 07:45:01;;;;;;;14.60;13.20;;;29.70;99.90;;;;;;5083690;28;20950;-79
2023/06/21 07:47:27;;;;;;;17.17;15.17;;;29.80;99.90;;;;;;5066083;28;20192;-79
2023/06/21 07:49:53;;;;;;;15.50;14.10;;;29.90;99.90;;;;;;5084239;28;20230;-80
2023/06/21 07:52:19;;;;;;;15.30;14.00;;;29.90;99.90;;;;;;5064076;28;20416;-80
2023/06/21 07:54:47;;;;;;;18.27;14.07;;;30.00;99.90;;;;;;5084725;28;20192;-80
2023/06/21 07:57:15;;;;;;;18.07;14.53;;;30.10;99.90;;;;;;5083147;28;20698;-79
2023/06/21 07:59:40;;;;;;;15.00;13.50;;;30.20;99.90;;;;;;5081289;28;20539;-79
2023/06/21 08:02:06;;;;;;;14.03;12.77;;;30.30;99.90;;;;;;5063897;28;20903;-79
2023/06/21 08:04:32;;;;;;;18.93;15.10;;;30.40;99.90;;;;;;5065403;28;20198;-80
2023/06/21 08:06:57;;;;;;;17.13;15.63;;;30.50;99.90;;;;;;5085677;28;20202;-79
2023/06/21 08:09:23;;;;;;;15.57;13.87;;;30.50;99.90;;;;;;5085739;28;20693;-79
2023/06/21 08:11:49;;;;;;;16.27;14.77;;;30.50;99.90;;;;;;5085047;28;20184;-79
2023/06/21 08:14:14;;;;;;;15.80;14.37;;;30.60;99.90;;;;;;5067009;28;20200;-79
2023/06/21 08:16:40;;;;;;;17.60;13.40;;;30.60;99.90;;;;;;5082820;28;20344;-79
2023/06/21 08:19:06;;;;;;;15.30;13.90;;;30.70;99.90;;;;;;5077961;28;20215;-80
2023/06/21 08:21:32;;;;;;;18.93;14.00;;;30.70;99.90;;;;;;5082343;28;20240;-79
2023/06/21 08:23:58;;;;;;;14.40;13.10;;;30.80;99.90;;;;;;5066994;28;20548;-80
2023/06/21 08:26:23;;;;;;;14.67;13.10;;;30.80;99.90;;;;;;5083041;28;20176;-79
2023/06/21 08:28:49;;;;;;;14.47;13.00;;;30.90;99.90;;;;;;5080457;28;20588;-80
2023/06/21 08:31:15;;;;;;;14.70;13.27;;;31.00;99.90;;;;;;5082801;28;20356;-80
2023/06/21 08:33:41;;;;;;;15.47;13.97;;;31.00;99.90;;;;;;5062362;28;20260;-80
2023/06/21 08:36:07;;;;;;;14.67;13.07;;;31.10;99.90;;;;;;5059691;28;20188;-79
2023/06/21 08:38:33;;;;;;;13.77;12.47;;;31.20;99.90;;;;;;5080500;28;20566;-79
2023/06/21 08:41:02;;;;;;;14.23;13.03;;;31.20;99.90;;;;;;5079986;28;20467;-80
2023/06/21 08:43:28;;;;;;;15.80;14.50;;;31.30;99.90;;;;;;5063966;28;20454;-80
2023/06/21 08:45:55;;;;;;;14.63;13.33;;;31.30;99.90;;;;;;5061249;28;20412;-80
2023/06/21 08:48:22;;;;;;;14.50;13.00;;;31.40;99.90;;;;;;5052300;28;20174;-79
2023/06/21 08:50:50;;;;;;;14.07;12.70;;;31.40;99.90;;;;;;5042478;28;20552;-80
2023/06/21 08:53:47;;;;;;;15.23;13.93;;;31.50;99.90;;;;;;5051112;28;20637;-80
2023/06/21 08:56:18;;;;;;;14.90;13.70;;;31.70;99.90;;;;;;5058931;28;20442;-80
2023/06/21 08:58:51;;;;;;;14.20;13.00;;;31.70;99.90;;;;;;5062801;28;20461;-79
2023/06/21 09:01:21;;;;;;;14.80;12.40;;;31.70;99.90;;;;;;5063347;28;20790;-80
2023/06/21 09:03:58;;;;;;;13.03;11.87;;;31.80;99.90;;;;;;5061747;28;20454;-80
2023/06/21 09:06:25;;;;;;;14.97;13.60;;;31.80;99.90;;;;;;5065177;28;20791;-80
2023/06/21 09:08:54;;;;;;;14.67;13.03;;;31.90;99.90;;;;;;5062572;28;20571;-80
2023/06/21 09:11:23;;;;;;;13.40;12.30;;;31.90;99.90;;;;;;5062597;28;20422;-80
2023/06/21 09:13:50;;;;;;;14.13;12.77;;;32.00;99.90;;;;;;5064597;28;20529;-79
2023/06/21 09:16:17;;;;;;;13.97;12.60;;;32.00;99.90;;;;;;5064314;28;20930;-80
2023/06/21 09:18:47;;;;;;;14.23;12.73;;;32.00;99.90;;;;;;5057843;28;20488;-79
2023/06/21 09:21:13;;;;;;;15.07;13.33;;;32.10;99.90;;;;;;5061938;28;20491;-80
2023/06/21 09:23:40;;;;;;;13.20;12.10;;;32.20;99.90;;;;;;5059991;28;20453;-79
2023/06/21 09:26:07;;;;;;;14.93;13.33;;;32.30;99.90;;;;;;5060490;28;20429;-79
2023/06/21 09:28:33;;;;;;;14.27;12.90;;;32.20;99.90;;;;;;5063477;28;20449;-79
2023/06/21 09:30:59;;;;;;;14.43;12.93;;;32.30;99.90;;;;;;5056358;28;20432;-80
2023/06/21 09:33:25;;;;;;;14.20;13.00;;;32.40;99.90;;;;;;5062934;28;20755;-79
2023/06/21 09:35:51;;;;;;;14.87;13.03;;;32.50;99.90;;;;;;5075562;28;20440;-79
2023/06/21 09:38:28;;;;;;;13.37;12.20;;;32.50;99.90;;;;;;5064082;28;20216;-79
2023/06/21 09:40:54;;;;;;;14.77;13.17;;;32.60;99.90;;;;;;5062340;28;20187;-79
2023/06/21 09:43:22;;;;;;;14.57;13.03;;;32.60;99.90;;;;;;5071368;28;21177;-81
2023/06/21 09:46:07;;;;;;;17.13;13.70;;;32.60;99.80;;;;;;5084154;28;20453;-81
2023/06/21 09:48:34;;;;;;;14.30;12.93;;;32.60;99.30;;;;;;5081453;28;20490;-80
2023/06/21 09:51:04;;;;;;;14.80;13.40;;;32.70;99.90;;;;;;5086078;28;20425;-80
2023/06/21 09:53:30;;;;;;;14.60;13.20;;;32.80;99.70;;;;;;5081820;28;20789;-79
2023/06/21 09:55:56;;;;;;;14.77;12.80;;;32.70;99.00;;;;;;5065934;28;21249;-79
2023/06/21 09:58:23;;;;;;;15.40;13.37;;;32.60;98.70;;;;;;5068187;28;20923;-79
2023/06/21 10:00:49;;;;;;;13.43;12.30;;;32.80;99.50;;;;;;5083446;28;20452;-79
2023/06/21 10:03:15;;;;;;;14.03;12.73;;;32.80;98.90;;;;;;5065305;28;20425;-79
2023/06/21 10:05:57;;;;;;;15.03;13.57;;;32.90;99.10;;;;;;5084354;28;20584;-79
2023/06/21 10:08:24;;;;;;;14.63;13.07;;;32.90;98.80;;;;;;5083037;28;20192;-80
2023/06/21 10:10:50;;;;;;;14.60;13.40;;;33.00;98.90;;;;;;5067843;28;20447;-79
2023/06/21 10:13:15;;;;;;;13.37;12.07;;;33.10;99.00;;;;;;5059126;28;20505;-79
2023/06/21 10:15:46;;;;;;;15.10;13.50;;;33.10;98.10;;;;;;5081643;28;20211;-79
2023/06/21 10:18:12;;;;;;;13.23;12.03;;;33.20;98.00;;;;;;5064046;28;20216;-79
2023/06/21 10:20:40;;;;;;;13.20;12.13;;;33.20;98.00;;;;;;5083348;28;21006;-79
2023/06/21 10:23:08;;;;;;;14.70;13.27;;;33.20;97.80;;;;;;5065447;28;20421;-80
2023/06/21 10:25:35;;;;;;;13.07;11.90;;;33.30;97.80;;;;;;5085550;28;20801;-79
2023/06/21 10:28:05;;;;;;;14.93;13.63;;;33.40;98.00;;;;;;5060448;28;20432;-78
2023/06/21 10:30:33;;;;;;;14.57;13.37;;;33.40;97.70;;;;;;5074992;28;20997;-79
2023/06/21 10:33:02;;;;;;;16.93;12.87;;;33.50;97.60;;;;;;5060167;28;20471;-79
2023/06/21 10:35:33;;;;;;;14.10;12.43;;;33.50;97.60;;;;;;5074959;28;20460;-79
2023/06/21 10:38:08;;;;;;;14.47;13.17;;;33.40;97.30;;;;;;5067028;28;21144;-79
2023/06/21 10:40:37;;;;;;;15.13;13.63;;;33.40;96.80;;;;;;5079284;28;20554;-79
2023/06/21 10:43:03;;;;;;;13.97;12.87;;;33.40;96.80;;;;;;5080048;28;20481;-79
2023/06/21 10:45:31;;;;;;;13.80;12.50;;;33.40;96.60;;;;;;5052938;28;20457;-79
2023/06/21 10:47:57;;;;;;;14.90;13.40;;;33.40;96.40;;;;;;5063576;28;20421;-79
2023/06/21 10:50:24;;;;;;;14.30;12.97;;;33.40;96.50;;;;;;5073484;28;20829;-79
2023/06/21 10:52:54;;;;;;;14.80;13.33;;;33.40;96.60;;;;;;5081437;28;20966;-79
2023/06/21 10:55:21;;;;;;;14.37;12.87;;;33.40;96.40;;;;;;5071382;28;20519;-80
2023/06/21 10:57:52;;;;;;;14.67;13.17;;;33.40;96.50;;;;;;5080732;28;20473;-80
2023/06/21 11:00:21;;;;;;;15.60;14.27;;;33.40;96.80;;;;;;5081480;28;20937;-80
2023/06/21 11:02:47;;;;;;;15.13;13.73;;;33.40;96.20;;;;;;5082134;28;20441;-80
2023/06/21 11:05:25;;;;;;;15.83;14.33;;;33.30;96.30;;;;;;5060341;28;20780;-80
2023/06/21 11:07:59;;;;;;;15.20;13.63;;;33.20;96.30;;;;;;5080694;28;20443;-80
2023/06/21 11:10:57;;;;;;;15.70;14.33;;;33.30;96.40;;;;;;5079968;28;20521;-79
2023/06/21 11:13:37;;;;;;;14.17;13.07;;;33.20;96.00;;;;;;5024022;28;21057;-80
2023/06/21 11:16:13;;;;;;;14.50;13.20;;;33.20;96.50;;;;;;5064953;28;20524;-79
2023/06/21 11:18:42;;;;;;;15.73;14.23;;;33.20;96.60;;;;;;5076749;28;20517;-79
2023/06/21 11:21:08;;;;;;;14.50;13.20;;;33.10;96.40;;;;;;5078317;28;20719;-80
2023/06/21 11:23:50;;;;;;;14.50;13.30;;;33.10;96.80;;;;;;5056508;28;21189;-80
2023/06/21 11:26:17;;;;;;;14.63;13.17;;;33.20;96.60;;;;;;5060494;28;20548;-80
2023/06/21 11:28:46;;;;;;;15.77;14.17;;;33.20;96.60;;;;;;5078580;28;20999;-80
2023/06/21 11:31:14;;;;;;;14.90;13.40;;;33.20;96.50;;;;;;5076071;28;20445;-79
2023/06/21 11:33:44;;;;;;;14.83;13.30;;;33.20;96.50;;;;;;5058566;28;20474;-80
2023/06/21 11:36:10;;;;;;;15.03;13.43;;;33.20;96.50;;;;;;5056505;28;20570;-80
2023/06/21 11:38:37;;;;;;;13.87;12.70;;;33.10;96.50;;;;;;5075522;28;20863;-80
2023/06/21 11:41:40;;;;;;;14.83;13.30;;;33.10;96.20;;;;;;5077027;28;21006;-79
2023/06/21 11:44:07;;;;;;;14.30;13.00;;;33.00;96.50;;;;;;5055223;28;20479;-80
2023/06/21 11:46:33;;;;;;;13.90;12.60;;;33.10;97.00;;;;;;5071820;28;20428;-80
2023/06/21 11:49:00;;;;;;;15.17;13.77;;;33.10;97.10;;;;;;5055369;28;20532;-79
2023/06/21 11:51:27;;;;;;;16.27;14.60;;;33.20;96.40;;;;;;5057162;28;20184;-79
2023/06/21 11:53:55;;;;;;;14.90;13.50;;;33.10;96.40;;;;;;5059718;28;20523;-80
2023/06/21 11:56:21;;;;;;;16.30;14.80;;;33.20;96.20;;;;;;5078232;28;20423;-80
2023/06/21 11:58:48;;;;;;;17.20;14.37;;;33.20;96.60;;;;;;5060411;28;20741;-79
2023/06/21 12:01:14;;;;;;;15.23;13.63;;;33.30;96.30;;;;;;5063626;28;20969;-80
2023/06/21 12:03:40;;;;;;;13.87;12.67;;;33.30;96.00;;;;;;5082709;28;20436;-79
2023/06/21 12:06:06;;;;;;;15.97;14.43;;;33.30;95.50;;;;;;5083174;28;20854;-80
2023/06/21 12:08:34;;;;;;;15.97;14.40;;;33.30;95.50;;;;;;5064699;28;20524;-80
2023/06/21 12:11:02;;;;;;;16.17;14.73;;;33.30;95.70;;;;;;5082466;28;20765;-80
2023/06/21 12:13:29;;;;;;;15.80;14.57;;;33.10;95.40;;;;;;5081658;28;20424;-80
2023/06/21 12:16:02;;;;;;;16.63;14.70;;;33.10;95.80;;;;;;5062805;28;20451;-80
2023/06/21 12:18:29;;;;;;;16.83;15.13;;;33.20;95.90;;;;;;5061703;28;20993;-80
2023/06/21 12:20:57;;;;;;;15.73;14.43;;;33.30;95.40;;;;;;5060388;28;20959;-80
2023/06/21 12:23:23;;;;;;;15.80;14.30;;;33.30;95.20;;;;;;5092258;28;20428;-80
2023/06/21 12:25:55;;;;;;;15.40;14.10;;;33.40;95.40;;;;;;5061046;28;20448;-79
2023/06/21 12:28:22;;;;;;;15.87;14.53;;;33.50;95.40;;;;;;5070763;28;20441;-80
2023/06/21 12:30:59;;;;;;;20.70;13.73;;;33.60;95.60;;;;;;5074331;28;20456;-81